sensor_id;sensor_type;location;lat;lon;timestamp;pressure;altitude;pressure_sealevel;temperature;humidity
11099;BME280;12223;42.650;23.364;2023-03-03T00:01:18;94648.72;;;3.47;100.00
11099;BME280;12223;42.650;23.364;2023-03-03T00:03:45;94637.25;;;3.48;100.00
11099;BME280;12223;42.650;23.364;2023-03-03T00:06:13;94642.13;;;3.51;100.00
11099;BME280;12223;42.650;23.364;2023-03-03T00:08:40;94644.09;;;3.49;100.00
11099;BME280;12223;42.650;23.364;2023-03-03T00:11:07;94638.28;;;3.47;100.00
11099;BME280;12223;42.650;23.364;2023-03-03T00:13:42;94632.22;;;3.47;100.00
11099;BME280;12223;42.650;23.364;2023-03-03T00:16:14;94638.78;;;3.43;100.00
11099;BME280;12223;42.650;23.364;2023-03-03T00:18:44;94619.44;;;3.37;100.00
11099;BME280;12223;42.650;23.364;2023-03-03T00:21:21;94634.38;;;3.43;100.00
11099;BME280;12223;42.650;23.364;2023-03-03T00:23:50;94594.13;;;3.08;100.00
11099;BME280;12223;42.650;23.364;2023-03-03T00:26:20;94623.13;;;3.43;100.00
11099;BME280;12223;42.650;23.364;2023-03-03T00:28:49;94617.56;;;3.46;100.00
11099;BME280;12223;42.650;23.364;2023-03-03T00:31:19;94623.84;;;3.51;100.00
11099;BME280;12223;42.650;23.364;2023-03-03T00:33:48;94627.91;;;3.54;100.00
11099;BME280;12223;42.650;23.364;2023-03-03T00:36:37;94628.53;;;3.56;100.00
11099;BME280;12223;42.650;23.364;2023-03-03T00:39:18;94610.63;;;3.53;100.00
11099;BME280;12223;42.650;23.364;2023-03-03T00:41:48;94627.53;;;3.57;100.00
11099;BME280;12223;42.650;23.364;2023-03-03T00:44:38;94615.66;;;3.54;100.00
11099;BME280;12223;42.650;23.364;2023-03-03T00:47:26;94611.44;;;3.53;100.00
11099;BME280;12223;42.650;23.364;2023-03-03T00:50:16;94599.72;;;3.49;100.00
11099;BME280;12223;42.650;23.364;2023-03-03T00:52:59;94597.13;;;3.49;100.00
11099;BME280;12223;42.650;23.364;2023-03-03T00:55:27;94593.50;;;3.50;100.00
11099;BME280;12223;42.650;23.364;2023-03-03T00:57:54;94584.88;;;3.50;100.00
11099;BME280;12223;42.650;23.364;2023-03-03T01:00:21;94582.44;;;3.48;100.00
11099;BME280;12223;42.650;23.364;2023-03-03T01:02:47;94582.44;;;3.48;100.00
11099;BME280;12223;42.650;23.364;2023-03-03T01:05:17;94555.53;;;3.33;100.00
11099;BME280;12223;42.650;23.364;2023-03-03T01:07:44;94579.94;;;3.40;100.00
11099;BME280;12223;42.650;23.364;2023-03-03T01:10:11;94579.72;;;3.42;100.00
11099;BME280;12223;42.650;23.364;2023-03-03T01:12:38;94565.91;;;3.41;100.00
11099;BME280;12223;42.650;23.364;2023-03-03T01:15:06;94564.44;;;3.39;100.00
11099;BME280;12223;42.650;23.364;2023-03-03T01:17:34;94563.28;;;3.41;100.00
11099;BME280;12223;42.650;23.364;2023-03-03T01:20:01;94559.13;;;3.32;100.00
11099;BME280;12223;42.650;23.364;2023-03-03T01:22:29;94567.50;;;3.42;100.00
11099;BME280;12223;42.650;23.364;2023-03-03T01:24:56;94567.88;;;3.39;100.00
11099;BME280;12223;42.650;23.364;2023-03-03T01:27:23;94559.47;;;3.29;100.00
11099;BME280;12223;42.650;23.364;2023-03-03T01:29:50;94560.03;;;3.24;100.00
11099;BME280;12223;42.650;23.364;2023-03-03T01:32:16;94552.66;;;3.28;100.00
11099;BME280;12223;42.650;23.364;2023-03-03T01:34:43;94545.09;;;3.33;100.00
11099;BME280;12223;42.650;23.364;2023-03-03T01:37:10;94531.41;;;3.31;100.00
11099;BME280;12223;42.650;23.364;2023-03-03T01:39:38;94545.28;;;3.32;100.00
11099;BME280;12223;42.650;23.364;2023-03-03T01:42:05;94540.22;;;3.30;100.00
11099;BME280;12223;42.650;23.364;2023-03-03T01:44:32;94535.81;;;3.31;100.00
11099;BME280;12223;42.650;23.364;2023-03-03T01:47:02;94542.75;;;3.38;100.00
11099;BME280;12223;42.650;23.364;2023-03-03T01:49:33;94535.00;;;3.30;100.00
11099;BME280;12223;42.650;23.364;2023-03-03T01:52:04;94541.03;;;3.31;100.00
11099;BME280;12223;42.650;23.364;2023-03-03T01:54:39;94541.22;;;3.29;100.00
11099;BME280;12223;42.650;23.364;2023-03-03T01:57:12;94537.72;;;3.22;100.00
11099;BME280;12223;42.650;23.364;2023-03-03T01:59:43;94529.59;;;3.17;100.00
11099;BME280;12223;42.650;23.364;2023-03-03T02:02:13;94478.44;;;2.87;100.00
11099;BME280;12223;42.650;23.364;2023-03-03T02:04:40;94522.78;;;3.16;100.00
11099;BME280;12223;42.650;23.364;2023-03-03T02:07:08;94523.13;;;3.13;100.00
11099;BME280;12223;42.650;23.364;2023-03-03T02:09:45;94517.81;;;3.06;100.00
11099;BME280;12223;42.650;23.364;2023-03-03T02:12:17;94521.41;;;3.05;100.00
11099;BME280;12223;42.650;23.364;2023-03-03T02:14:45;94515.88;;;3.08;100.00
11099;BME280;12223;42.650;23.364;2023-03-03T02:17:12;94495.78;;;2.94;100.00
11099;BME280;12223;42.650;23.364;2023-03-03T02:19:45;94513.00;;;3.03;100.00
11099;BME280;12223;42.650;23.364;2023-03-03T02:22:14;94509.38;;;3.04;100.00
11099;BME280;12223;42.650;23.364;2023-03-03T02:24:49;94513.25;;;3.08;100.00
11099;BME280;12223;42.650;23.364;2023-03-03T02:27:19;94509.84;;;3.08;100.00
11099;BME280;12223;42.650;23.364;2023-03-03T02:29:46;94515.31;;;3.13;100.00
11099;BME280;12223;42.650;23.364;2023-03-03T02:32:13;94522.06;;;3.22;100.00
11099;BME280;12223;42.650;23.364;2023-03-03T02:34:45;94523.66;;;3.23;100.00
11099;BME280;12223;42.650;23.364;2023-03-03T02:37:12;94531.50;;;3.23;100.00
11099;BME280;12223;42.650;23.364;2023-03-03T02:39:39;94532.78;;;3.27;100.00
11099;BME280;12223;42.650;23.364;2023-03-03T02:42:12;94525.75;;;3.28;100.00
11099;BME280;12223;42.650;23.364;2023-03-03T02:44:41;94531.16;;;3.26;100.00
11099;BME280;12223;42.650;23.364;2023-03-03T02:47:08;94533.50;;;3.21;100.00
11099;BME280;12223;42.650;23.364;2023-03-03T02:49:35;94531.78;;;3.28;100.00
11099;BME280;12223;42.650;23.364;2023-03-03T02:52:05;94537.44;;;3.32;100.00
11099;BME280;12223;42.650;23.364;2023-03-03T02:54:34;94530.06;;;3.20;100.00
11099;BME280;12223;42.650;23.364;2023-03-03T02:57:01;94520.78;;;3.18;100.00
11099;BME280;12223;42.650;23.364;2023-03-03T02:59:28;94508.47;;;3.12;100.00
11099;BME280;12223;42.650;23.364;2023-03-03T03:01:57;94514.41;;;3.20;100.00
11099;BME280;12223;42.650;23.364;2023-03-03T03:04:26;94515.41;;;3.05;100.00
11099;BME280;12223;42.650;23.364;2023-03-03T03:06:54;94492.47;;;3.00;100.00
11099;BME280;12223;42.650;23.364;2023-03-03T03:09:22;94454.84;;;2.80;100.00
11099;BME280;12223;42.650;23.364;2023-03-03T03:11:50;94500.66;;;3.12;100.00
11099;BME280;12223;42.650;23.364;2023-03-03T03:14:17;94501.28;;;3.14;100.00
11099;BME280;12223;42.650;23.364;2023-03-03T03:16:46;94506.75;;;3.19;100.00
11099;BME280;12223;42.650;23.364;2023-03-03T03:19:14;94498.75;;;3.20;100.00
11099;BME280;12223;42.650;23.364;2023-03-03T03:21:41;94508.00;;;3.23;100.00
11099;BME280;12223;42.650;23.364;2023-03-03T03:24:08;94508.91;;;3.30;100.00
11099;BME280;12223;42.650;23.364;2023-03-03T03:26:37;94521.44;;;3.35;100.00
11099;BME280;12223;42.650;23.364;2023-03-03T03:29:04;94509.47;;;3.26;100.00
11099;BME280;12223;42.650;23.364;2023-03-03T03:31:31;94506.94;;;3.32;100.00
11099;BME280;12223;42.650;23.364;2023-03-03T03:33:58;94513.97;;;3.32;100.00
11099;BME280;12223;42.650;23.364;2023-03-03T03:36:27;94496.84;;;3.29;100.00
11099;BME280;12223;42.650;23.364;2023-03-03T03:38:55;94503.69;;;3.30;100.00
11099;BME280;12223;42.650;23.364;2023-03-03T03:41:22;94499.66;;;3.28;100.00
11099;BME280;12223;42.650;23.364;2023-03-03T03:43:49;94493.00;;;3.25;100.00
11099;BME280;12223;42.650;23.364;2023-03-03T03:46:16;94492.66;;;3.28;100.00
11099;BME280;12223;42.650;23.364;2023-03-03T03:48:43;94482.09;;;3.36;100.00
11099;BME280;12223;42.650;23.364;2023-03-03T03:51:10;94480.09;;;3.38;100.00
11099;BME280;12223;42.650;23.364;2023-03-03T03:53:38;94467.97;;;3.31;100.00
11099;BME280;12223;42.650;23.364;2023-03-03T03:56:06;94473.56;;;3.28;100.00
11099;BME280;12223;42.650;23.364;2023-03-03T03:58:33;94474.91;;;3.23;100.00
11099;BME280;12223;42.650;23.364;2023-03-03T04:01:01;94474.00;;;3.16;100.00
11099;BME280;12223;42.650;23.364;2023-03-03T04:03:28;94458.91;;;3.12;100.00
11099;BME280;12223;42.650;23.364;2023-03-03T04:05:55;94449.28;;;3.12;100.00
11099;BME280;12223;42.650;23.364;2023-03-03T04:08:22;94438.03;;;3.12;100.00
11099;BME280;12223;42.650;23.364;2023-03-03T04:10:50;94441.44;;;3.12;100.00
11099;BME280;12223;42.650;23.364;2023-03-03T04:13:17;94430.03;;;3.13;100.00
11099;BME280;12223;42.650;23.364;2023-03-03T04:15:44;94432.25;;;3.16;100.00
11099;BME280;12223;42.650;23.364;2023-03-03T04:18:10;94443.50;;;3.17;100.00
11099;BME280;12223;42.650;23.364;2023-03-03T04:20:39;94432.91;;;3.18;100.00
11099;BME280;12223;42.650;23.364;2023-03-03T04:23:05;94429.47;;;3.18;100.00
11099;BME280;12223;42.650;23.364;2023-03-03T04:25:32;94428.88;;;3.16;100.00
11099;BME280;12223;42.650;23.364;2023-03-03T04:28:00;94373.03;;;2.81;100.00
11099;BME280;12223;42.650;23.364;2023-03-03T04:30:27;94426.69;;;3.05;100.00
11099;BME280;12223;42.650;23.364;2023-03-03T04:32:54;94419.50;;;3.07;100.00
11099;BME280;12223;42.650;23.364;2023-03-03T04:35:20;94422.13;;;3.07;100.00
11099;BME280;12223;42.650;23.364;2023-03-03T04:37:47;94410.88;;;3.06;100.00
11099;BME280;12223;42.650;23.364;2023-03-03T04:40:14;94391.53;;;3.01;100.00
11099;BME280;12223;42.650;23.364;2023-03-03T04:42:42;94410.53;;;3.09;100.00
11099;BME280;12223;42.650;23.364;2023-03-03T04:45:11;94407.09;;;3.09;100.00
11099;BME280;12223;42.650;23.364;2023-03-03T04:47:37;94401.00;;;3.02;100.00
11099;BME280;12223;42.650;23.364;2023-03-03T04:50:05;94395.59;;;3.03;100.00
11099;BME280;12223;42.650;23.364;2023-03-03T04:52:33;94381.66;;;2.96;100.00
11099;BME280;12223;42.650;23.364;2023-03-03T04:55:00;94399.81;;;3.04;100.00
11099;BME280;12223;42.650;23.364;2023-03-03T04:57:30;94405.31;;;3.09;100.00
11099;BME280;12223;42.650;23.364;2023-03-03T04:59:57;94396.91;;;3.14;100.00
11099;BME280;12223;42.650;23.364;2023-03-03T05:02:25;94403.56;;;3.16;100.00
11099;BME280;12223;42.650;23.364;2023-03-03T05:04:52;94406.81;;;3.18;100.00
11099;BME280;12223;42.650;23.364;2023-03-03T05:07:19;94416.88;;;3.21;100.00
11099;BME280;12223;42.650;23.364;2023-03-03T05:09:45;94415.69;;;3.24;100.00
11099;BME280;12223;42.650;23.364;2023-03-03T05:12:12;94421.00;;;3.31;100.00
11099;BME280;12223;42.650;23.364;2023-03-03T05:14:39;94424.31;;;3.39;100.00
11099;BME280;12223;42.650;23.364;2023-03-03T05:17:06;94438.59;;;3.43;100.00
11099;BME280;12223;42.650;23.364;2023-03-03T05:19:34;94431.16;;;3.40;100.00
11099;BME280;12223;42.650;23.364;2023-03-03T05:22:01;94433.94;;;3.39;100.00
11099;BME280;12223;42.650;23.364;2023-03-03T05:24:38;94419.28;;;3.23;100.00
11099;BME280;12223;42.650;23.364;2023-03-03T05:27:11;94444.56;;;3.22;100.00
11099;BME280;12223;42.650;23.364;2023-03-03T05:29:38;94444.53;;;3.16;100.00
11099;BME280;12223;42.650;23.364;2023-03-03T05:32:07;94429.47;;;3.18;100.00
11099;BME280;12223;42.650;23.364;2023-03-03T05:34:35;94425.16;;;3.25;100.00
11099;BME280;12223;42.650;23.364;2023-03-03T05:37:02;94423.78;;;3.29;100.00
11099;BME280;12223;42.650;23.364;2023-03-03T05:39:31;94385.59;;;2.92;100.00
11099;BME280;12223;42.650;23.364;2023-03-03T05:41:58;94435.59;;;3.25;100.00
11099;BME280;12223;42.650;23.364;2023-03-03T05:44:25;94433.44;;;3.29;100.00
11099;BME280;12223;42.650;23.364;2023-03-03T05:46:55;94436.63;;;3.45;100.00
11099;BME280;12223;42.650;23.364;2023-03-03T05:49:23;94440.94;;;3.53;100.00
11099;BME280;12223;42.650;23.364;2023-03-03T05:51:51;94446.84;;;3.61;100.00
11099;BME280;12223;42.650;23.364;2023-03-03T05:54:19;94466.97;;;3.68;100.00
11099;BME280;12223;42.650;23.364;2023-03-03T05:56:46;94447.03;;;3.60;100.00
11099;BME280;12223;42.650;23.364;2023-03-03T05:59:14;94487.78;;;3.76;100.00
11099;BME280;12223;42.650;23.364;2023-03-03T06:01:42;94473.56;;;3.78;100.00
11099;BME280;12223;42.650;23.364;2023-03-03T06:04:08;94485.38;;;3.95;100.00
11099;BME280;12223;42.650;23.364;2023-03-03T06:06:35;94497.50;;;4.03;100.00
11099;BME280;12223;42.650;23.364;2023-03-03T06:09:03;94509.84;;;4.09;100.00
11099;BME280;12223;42.650;23.364;2023-03-03T06:11:31;94510.25;;;4.13;100.00
11099;BME280;12223;42.650;23.364;2023-03-03T06:13:58;94520.88;;;4.11;100.00
11099;BME280;12223;42.650;23.364;2023-03-03T06:16:25;94537.66;;;4.17;100.00
11099;BME280;12223;42.650;23.364;2023-03-03T06:18:52;94528.78;;;4.18;100.00
11099;BME280;12223;42.650;23.364;2023-03-03T06:21:18;94532.44;;;4.17;100.00
11099;BME280;12223;42.650;23.364;2023-03-03T06:23:45;94527.81;;;4.19;100.00
11099;BME280;12223;42.650;23.364;2023-03-03T06:26:13;94534.84;;;4.18;100.00
11099;BME280;12223;42.650;23.364;2023-03-03T06:28:40;94524.53;;;4.10;100.00
11099;BME280;12223;42.650;23.364;2023-03-03T06:31:07;94544.38;;;4.26;100.00
11099;BME280;12223;42.650;23.364;2023-03-03T06:33:34;94559.47;;;4.30;100.00
11099;BME280;12223;42.650;23.364;2023-03-03T06:36:02;94564.53;;;4.32;100.00
11099;BME280;12223;42.650;23.364;2023-03-03T06:38:28;94576.25;;;4.36;100.00
11099;BME280;12223;42.650;23.364;2023-03-03T06:40:55;94576.97;;;4.09;100.00
11099;BME280;12223;42.650;23.364;2023-03-03T06:43:24;94581.78;;;3.90;100.00
11099;BME280;12223;42.650;23.364;2023-03-03T06:45:51;94561.63;;;4.05;100.00
11099;BME280;12223;42.650;23.364;2023-03-03T06:48:17;94557.75;;;4.16;100.00
11099;BME280;12223;42.650;23.364;2023-03-03T06:50:44;94552.22;;;4.26;100.00
11099;BME280;12223;42.650;23.364;2023-03-03T06:53:13;94566.09;;;4.26;100.00
11099;BME280;12223;42.650;23.364;2023-03-03T06:55:43;94572.31;;;4.25;100.00
11099;BME280;12223;42.650;23.364;2023-03-03T06:58:12;94571.44;;;4.39;100.00
11099;BME280;12223;42.650;23.364;2023-03-03T07:00:42;94568.72;;;4.48;100.00
11099;BME280;12223;42.650;23.364;2023-03-03T07:03:13;94572.50;;;4.45;100.00
11099;BME280;12223;42.650;23.364;2023-03-03T07:05:41;94603.22;;;4.58;100.00
11099;BME280;12223;42.650;23.364;2023-03-03T07:08:12;94603.75;;;4.74;100.00
11099;BME280;12223;42.650;23.364;2023-03-03T07:10:40;94609.25;;;4.79;100.00
11099;BME280;12223;42.650;23.364;2023-03-03T07:13:17;94589.38;;;4.85;100.00
11099;BME280;12223;42.650;23.364;2023-03-03T07:15:46;94637.84;;;4.60;100.00
11099;BME280;12223;42.650;23.364;2023-03-03T07:18:36;94617.06;;;4.37;100.00
11099;BME280;12223;42.650;23.364;2023-03-03T07:21:18;94623.25;;;4.51;100.00
11099;BME280;12223;42.650;23.364;2023-03-03T07:23:49;94618.34;;;4.41;100.00
11099;BME280;12223;42.650;23.364;2023-03-03T07:26:18;94616.16;;;4.44;100.00
11099;BME280;12223;42.650;23.364;2023-03-03T07:29:00;94597.78;;;4.17;100.00
11099;BME280;12223;42.650;23.364;2023-03-03T07:31:35;94629.72;;;4.19;100.00
11099;BME280;12223;42.650;23.364;2023-03-03T07:34:12;94619.75;;;4.22;100.00
11099;BME280;12223;42.650;23.364;2023-03-03T07:36:41;94614.25;;;4.17;100.00
11099;BME280;12223;42.650;23.364;2023-03-03T07:39:30;94603.66;;;4.25;100.00
11099;BME280;12223;42.650;23.364;2023-03-03T07:42:08;94593.97;;;4.19;100.00
11099;BME280;12223;42.650;23.364;2023-03-03T07:44:50;94617.81;;;4.31;100.00
11099;BME280;12223;42.650;23.364;2023-03-03T07:47:22;94620.13;;;4.40;100.00
11099;BME280;12223;42.650;23.364;2023-03-03T07:49:50;94617.28;;;4.57;100.00
11099;BME280;12223;42.650;23.364;2023-03-03T07:52:30;94604.97;;;4.72;100.00
11099;BME280;12223;42.650;23.364;2023-03-03T07:54:59;94596.47;;;4.91;100.00
11099;BME280;12223;42.650;23.364;2023-03-03T07:58:14;94613.84;;;4.99;100.00
11099;BME280;12223;42.650;23.364;2023-03-03T08:03:42;94625.50;;;4.96;100.00
11099;BME280;12223;42.650;23.364;2023-03-03T08:06:30;94624.31;;;4.99;100.00
11099;BME280;12223;42.650;23.364;2023-03-03T08:09:00;94629.09;;;4.95;100.00
11099;BME280;12223;42.650;23.364;2023-03-03T08:11:28;94625.50;;;4.96;100.00
11099;BME280;12223;42.650;23.364;2023-03-03T08:13:55;94630.78;;;5.03;100.00
11099;BME280;12223;42.650;23.364;2023-03-03T08:16:32;94618.38;;;5.11;100.00
11099;BME280;12223;42.650;23.364;2023-03-03T08:19:04;94619.19;;;5.12;100.00
11099;BME280;12223;42.650;23.364;2023-03-03T08:21:44;94604.91;;;5.14;100.00
11099;BME280;12223;42.650;23.364;2023-03-03T08:24:33;94622.00;;;5.10;100.00
11099;BME280;12223;42.650;23.364;2023-03-03T08:27:01;94627.06;;;5.12;100.00
11099;BME280;12223;42.650;23.364;2023-03-03T08:29:28;94607.66;;;5.06;100.00
11099;BME280;12223;42.650;23.364;2023-03-03T08:31:55;94598.72;;;5.22;100.00
11099;BME280;12223;42.650;23.364;2023-03-03T08:34:23;94607.28;;;5.09;100.00
11099;BME280;12223;42.650;23.364;2023-03-03T08:36:50;94624.16;;;5.07;100.00
11099;BME280;12223;42.650;23.364;2023-03-03T08:39:17;94617.41;;;4.91;100.00
11099;BME280;12223;42.650;23.364;2023-03-03T08:41:47;94569.50;;;4.69;100.00
11099;BME280;12223;42.650;23.364;2023-03-03T08:44:14;94624.63;;;4.89;100.00
11099;BME280;12223;42.650;23.364;2023-03-03T08:46:41;94602.81;;;4.82;100.00
11099;BME280;12223;42.650;23.364;2023-03-03T08:49:08;94608.50;;;4.85;100.00
11099;BME280;12223;42.650;23.364;2023-03-03T08:51:37;94589.78;;;4.89;100.00
11099;BME280;12223;42.650;23.364;2023-03-03T08:54:04;94591.75;;;4.80;100.00
11099;BME280;12223;42.650;23.364;2023-03-03T08:56:30;94595.44;;;4.85;100.00
11099;BME280;12223;42.650;23.364;2023-03-03T08:58:57;94617.81;;;4.95;100.00
11099;BME280;12223;42.650;23.364;2023-03-03T09:01:24;94606.81;;;4.99;100.00
11099;BME280;12223;42.650;23.364;2023-03-03T09:03:58;94594.97;;;5.03;100.00
11099;BME280;12223;42.650;23.364;2023-03-03T09:06:25;94612.69;;;5.29;100.00
11099;BME280;12223;42.650;23.364;2023-03-03T09:08:54;94597.16;;;5.28;100.00
11099;BME280;12223;42.650;23.364;2023-03-03T09:11:24;94615.28;;;5.29;100.00
11099;BME280;12223;42.650;23.364;2023-03-03T09:13:58;94618.66;;;5.23;100.00
11099;BME280;12223;42.650;23.364;2023-03-03T09:16:29;94568.50;;;4.92;100.00
11099;BME280;12223;42.650;23.364;2023-03-03T09:19:05;94631.13;;;5.21;100.00
11099;BME280;12223;42.650;23.364;2023-03-03T09:21:41;94647.00;;;5.41;100.00
11099;BME280;12223;42.650;23.364;2023-03-03T09:24:18;94638.19;;;5.48;100.00
11099;BME280;12223;42.650;23.364;2023-03-03T09:26:47;94638.88;;;5.63;100.00
11099;BME280;12223;42.650;23.364;2023-03-03T09:29:23;94642.13;;;5.93;100.00
11099;BME280;12223;42.650;23.364;2023-03-03T09:31:51;94637.44;;;6.30;100.00
11099;BME280;12223;42.650;23.364;2023-03-03T09:34:21;94632.84;;;6.52;100.00
11099;BME280;12223;42.650;23.364;2023-03-03T09:36:50;94641.78;;;6.70;100.00
11099;BME280;12223;42.650;23.364;2023-03-03T09:39:29;94644.09;;;7.00;100.00
11099;BME280;12223;42.650;23.364;2023-03-03T09:42:29;94647.72;;;7.18;100.00
11099;BME280;12223;42.650;23.364;2023-03-03T09:45:29;94654.38;;;7.21;100.00
11099;BME280;12223;42.650;23.364;2023-03-03T09:48:24;94669.34;;;7.14;100.00
11099;BME280;12223;42.650;23.364;2023-03-03T09:51:04;94666.69;;;6.94;100.00
11099;BME280;12223;42.650;23.364;2023-03-03T09:53:47;94664.22;;;6.79;100.00
11099;BME280;12223;42.650;23.364;2023-03-03T09:56:24;94660.19;;;6.83;100.00
11099;BME280;12223;42.650;23.364;2023-03-03T09:59:01;94635.94;;;6.68;100.00
11099;BME280;12223;42.650;23.364;2023-03-03T10:01:54;94651.31;;;6.84;100.00
11099;BME280;12223;42.650;23.364;2023-03-03T10:04:47;94636.59;;;6.90;100.00
11099;BME280;12223;42.650;23.364;2023-03-03T10:07:26;94673.81;;;7.33;100.00
11099;BME280;12223;42.650;23.364;2023-03-03T10:10:10;94662.69;;;7.57;100.00
11099;BME280;12223;42.650;23.364;2023-03-03T10:12:49;94656.59;;;7.77;100.00
11099;BME280;12223;42.650;23.364;2023-03-03T10:15:26;94609.31;;;7.63;100.00
11099;BME280;12223;42.650;23.364;2023-03-03T10:18:02;94668.66;;;8.04;100.00
11099;BME280;12223;42.650;23.364;2023-03-03T10:20:45;94646.81;;;8.10;100.00
11099;BME280;12223;42.650;23.364;2023-03-03T10:23:18;94644.00;;;8.05;100.00
11099;BME280;12223;42.650;23.364;2023-03-03T10:25:53;94653.88;;;8.16;100.00
11099;BME280;12223;42.650;23.364;2023-03-03T10:28:44;94649.88;;;8.07;100.00
11099;BME280;12223;42.650;23.364;2023-03-03T10:31:25;94646.25;;;8.01;100.00
11099;BME280;12223;42.650;23.364;2023-03-03T10:34:22;94648.84;;;8.15;100.00
11099;BME280;12223;42.650;23.364;2023-03-03T10:37:00;94650.22;;;8.17;100.00
11099;BME280;12223;42.650;23.364;2023-03-03T10:39:48;94648.84;;;8.15;100.00
11099;BME280;12223;42.650;23.364;2023-03-03T10:42:29;94651.47;;;8.15;100.00
11099;BME280;12223;42.650;23.364;2023-03-03T10:45:32;94635.09;;;7.99;100.00
11099;BME280;12223;42.650;23.364;2023-03-03T10:48:17;94638.38;;;7.95;100.00
11099;BME280;12223;42.650;23.364;2023-03-03T10:50:54;94629.50;;;7.89;100.00
11099;BME280;12223;42.650;23.364;2023-03-03T10:53:33;94610.69;;;7.79;100.00
11099;BME280;12223;42.650;23.364;2023-03-03T10:56:11;94627.03;;;7.94;100.00
11099;BME280;12223;42.650;23.364;2023-03-03T10:58:56;94617.13;;;7.96;100.00
11099;BME280;12223;42.650;23.364;2023-03-03T11:01:34;94591.47;;;7.85;100.00
11099;BME280;12223;42.650;23.364;2023-03-03T11:04:28;94622.41;;;7.90;100.00
11099;BME280;12223;42.650;23.364;2023-03-03T11:07:03;94597.72;;;7.84;100.00
11099;BME280;12223;42.650;23.364;2023-03-03T11:09:52;94623.97;;;7.97;100.00
11099;BME280;12223;42.650;23.364;2023-03-03T11:12:31;94602.44;;;7.69;100.00
11099;BME280;12223;42.650;23.364;2023-03-03T11:15:18;94623.84;;;7.66;100.00
11099;BME280;12223;42.650;23.364;2023-03-03T11:18:00;94615.56;;;7.69;100.00
11099;BME280;12223;42.650;23.364;2023-03-03T11:20:35;94611.34;;;7.22;100.00
11099;BME280;12223;42.650;23.364;2023-03-03T11:23:20;94592.38;;;6.87;100.00
11099;BME280;12223;42.650;23.364;2023-03-03T11:25:55;94600.03;;;7.08;100.00
11099;BME280;12223;42.650;23.364;2023-03-03T11:28:30;94594.00;;;7.08;100.00
11099;BME280;12223;42.650;23.364;2023-03-03T11:31:11;94596.41;;;7.16;100.00
11099;BME280;12223;42.650;23.364;2023-03-03T11:33:46;94589.97;;;7.25;100.00
11099;BME280;12223;42.650;23.364;2023-03-03T11:36:19;94595.59;;;7.28;100.00
11099;BME280;12223;42.650;23.364;2023-03-03T11:38:55;94595.22;;;7.25;100.00
11099;BME280;12223;42.650;23.364;2023-03-03T11:41:29;94592.16;;;7.21;100.00
11099;BME280;12223;42.650;23.364;2023-03-03T11:44:01;94580.25;;;7.19;100.00
11099;BME280;12223;42.650;23.364;2023-03-03T11:46:34;94593.19;;;7.14;100.00
11099;BME280;12223;42.650;23.364;2023-03-03T11:49:08;94583.28;;;7.09;100.00
11099;BME280;12223;42.650;23.364;2023-03-03T11:51:48;94574.81;;;7.27;100.00
11099;BME280;12223;42.650;23.364;2023-03-03T11:54:20;94586.31;;;7.39;100.00
11099;BME280;12223;42.650;23.364;2023-03-03T11:56:47;94585.88;;;7.49;100.00
11099;BME280;12223;42.650;23.364;2023-03-03T11:59:38;94578.63;;;7.44;100.00
11099;BME280;12223;42.650;23.364;2023-03-03T12:02:20;94587.91;;;7.47;100.00
11099;BME280;12223;42.650;23.364;2023-03-03T12:04:53;94587.50;;;7.50;100.00
11099;BME280;12223;42.650;23.364;2023-03-03T12:07:30;94569.13;;;7.23;100.00
11099;BME280;12223;42.650;23.364;2023-03-03T12:10:10;94567.72;;;7.27;100.00
11099;BME280;12223;42.650;23.364;2023-03-03T12:12:42;94573.94;;;7.53;100.00
11099;BME280;12223;42.650;23.364;2023-03-03T12:15:25;94564.03;;;7.61;100.00
11099;BME280;12223;42.650;23.364;2023-03-03T12:18:34;94572.09;;;7.66;100.00
11099;BME280;12223;42.650;23.364;2023-03-03T12:21:13;94579.78;;;7.61;100.00
11099;BME280;12223;42.650;23.364;2023-03-03T12:23:52;94583.41;;;7.67;100.00
11099;BME280;12223;42.650;23.364;2023-03-03T12:26:27;94567.84;;;7.65;100.00
11099;BME280;12223;42.650;23.364;2023-03-03T12:29:01;94585.66;;;7.70;100.00
11099;BME280;12223;42.650;23.364;2023-03-03T12:31:40;94595.38;;;7.56;100.00
11099;BME280;12223;42.650;23.364;2023-03-03T12:34:19;94590.72;;;7.58;100.00
11099;BME280;12223;42.650;23.364;2023-03-03T12:40:14;94553.19;;;6.99;100.00
11099;BME280;12223;42.650;23.364;2023-03-03T12:42:51;94573.78;;;7.21;100.00
11099;BME280;12223;42.650;23.364;2023-03-03T12:45:37;94606.31;;;7.27;100.00
11099;BME280;12223;42.650;23.364;2023-03-03T12:48:08;94577.41;;;6.74;100.00
11099;BME280;12223;42.650;23.364;2023-03-03T12:50:48;94570.91;;;6.37;100.00
11099;BME280;12223;42.650;23.364;2023-03-03T12:53:35;94561.59;;;6.28;100.00
11099;BME280;12223;42.650;23.364;2023-03-03T12:56:08;94540.56;;;6.15;100.00
11099;BME280;12223;42.650;23.364;2023-03-03T12:58:44;94528.72;;;6.26;100.00
11099;BME280;12223;42.650;23.364;2023-03-03T13:01:24;94522.38;;;6.07;100.00
11099;BME280;12223;42.650;23.364;2023-03-03T13:03:58;94511.13;;;6.13;100.00
11099;BME280;12223;42.650;23.364;2023-03-03T13:06:31;94497.97;;;5.93;100.00
11099;BME280;12223;42.650;23.364;2023-03-03T13:09:18;94478.84;;;5.99;100.00
11099;BME280;12223;42.650;23.364;2023-03-03T13:12:01;94473.59;;;5.99;100.00
11099;BME280;12223;42.650;23.364;2023-03-03T13:14:39;94488.50;;;5.92;100.00
11099;BME280;12223;42.650;23.364;2023-03-03T13:17:17;94452.41;;;6.07;100.00
11099;BME280;12223;42.650;23.364;2023-03-03T13:19:49;94424.75;;;5.85;100.00
11099;BME280;12223;42.650;23.364;2023-03-03T13:22:31;94451.44;;;6.15;100.00
11099;BME280;12223;42.650;23.364;2023-03-03T13:25:03;94475.00;;;6.02;100.00